createdAt,value
2023-05-10T05:01:09.868Z,500.00
2023-05-10T05:02:09.948Z,500.00
2023-05-10T05:03:10.006Z,500.00
2023-05-10T05:04:09.922Z,500.00
2023-05-10T05:05:09.954Z,500.00
2023-05-10T05:06:10.014Z,500.00
2023-05-10T05:07:10.030Z,400.00
2023-05-10T05:08:10.036Z,400.00
2023-05-10T05:09:10.145Z,400.00
2023-05-10T05:10:10.132Z,400.00
2023-05-10T05:11:10.174Z,400.00
2023-05-10T05:12:10.239Z,400.00
2023-05-10T05:13:10.317Z,400.00
2023-05-10T05:14:10.211Z,400.00
2023-05-10T05:15:17.863Z,400.00
2023-05-10T05:16:10.421Z,400.00
2023-05-10T05:17:10.281Z,400.00
2023-05-10T05:18:10.352Z,400.00
2023-05-10T05:19:10.217Z,400.00
2023-05-10T05:20:10.244Z,400.00
2023-05-10T05:21:10.226Z,400.00
2023-05-10T05:22:10.195Z,400.00
2023-05-10T05:23:10.176Z,400.00
2023-05-10T05:24:10.219Z,400.00
2023-05-10T05:25:10.189Z,400.00
2023-05-10T05:26:10.173Z,400.00
2023-05-10T05:27:10.160Z,400.00
2023-05-10T05:28:10.168Z,400.00
2023-05-10T05:29:10.145Z,400.00
2023-05-10T05:30:10.158Z,400.00
2023-05-10T05:31:10.287Z,421.00
2023-05-10T05:32:10.191Z,487.00
2023-05-10T05:33:10.241Z,500.00
2023-05-10T05:34:10.118Z,504.00
2023-05-10T05:35:10.111Z,522.00
2023-05-10T05:36:10.102Z,507.00
2023-05-10T05:37:10.083Z,518.00
2023-05-10T05:38:10.091Z,509.00
2023-05-10T05:39:10.079Z,510.00
2023-05-10T05:40:10.053Z,513.00
2023-05-10T05:41:10.074Z,518.00
2023-05-10T05:42:10.032Z,506.00
2023-05-10T05:43:10.038Z,510.00
2023-05-10T05:44:10.043Z,503.00
2023-05-10T05:45:10.068Z,514.00
2023-05-10T05:46:10.080Z,509.00
2023-05-10T05:47:10.045Z,506.00
2023-05-10T05:48:10.026Z,532.00
2023-05-10T05:49:10.017Z,530.00
2023-05-10T05:50:10.034Z,500.00
2023-05-10T05:51:10.071Z,503.00
2023-05-10T05:52:10.011Z,521.00
2023-05-10T05:53:09.977Z,531.00
2023-05-10T05:54:09.966Z,520.00
2023-05-10T05:55:09.986Z,513.00
2023-05-10T05:56:09.939Z,517.00
2023-05-10T05:57:09.938Z,525.00
2023-05-10T05:58:09.952Z,532.00
2023-05-10T05:59:09.926Z,508.00
2023-05-10T06:00:09.940Z,506.00
2023-05-10T06:01:09.914Z,506.00
2023-05-10T06:02:09.966Z,522.00
2023-05-10T06:03:09.963Z,521.00
2023-05-10T06:04:09.927Z,514.00
2023-05-10T06:05:09.907Z,524.00
2023-05-10T06:06:09.865Z,519.00
2023-05-10T06:07:09.878Z,531.00
2023-05-10T06:08:09.904Z,515.00
2023-05-10T06:09:09.901Z,512.00
2023-05-10T06:10:09.926Z,523.00
2023-05-10T06:11:09.959Z,520.00
2023-05-10T06:12:10.012Z,526.00
2023-05-10T06:13:10.072Z,526.00
2023-05-10T06:14:10.103Z,531.00
2023-05-10T06:15:10.106Z,532.00
2023-05-10T06:16:10.174Z,522.00
2023-05-10T06:17:10.234Z,521.00
2023-05-10T06:18:10.293Z,519.00
2023-05-10T06:19:10.334Z,529.00
2023-05-10T06:20:10.417Z,532.00
2023-05-10T06:21:10.525Z,532.00
2023-05-10T06:22:10.496Z,538.00
2023-05-10T06:23:10.567Z,535.00
2023-05-10T06:24:10.638Z,541.00
2023-05-10T06:25:10.718Z,542.00
2023-05-10T06:26:10.759Z,538.00
2023-05-10T06:27:10.829Z,538.00
2023-05-10T06:28:10.880Z,539.00
2023-05-10T06:29:11.026Z,539.00
2023-05-10T06:30:13.269Z,540.00
2023-05-10T06:31:11.306Z,545.00
2023-05-10T06:32:11.316Z,545.00
2023-05-10T06:33:11.341Z,543.00
2023-05-10T06:34:11.417Z,549.00
2023-05-10T06:35:11.487Z,553.00
2023-05-10T06:36:11.535Z,556.00
2023-05-10T06:37:11.558Z,553.00
2023-05-10T06:38:11.630Z,561.00
2023-05-10T06:39:11.656Z,558.00
2023-05-10T06:40:11.743Z,570.00
2023-05-10T06:41:11.775Z,569.00
2023-05-10T06:42:11.815Z,576.00
2023-05-10T06:43:11.854Z,572.00
2023-05-10T06:44:11.916Z,569.00
2023-05-10T06:45:11.965Z,570.00
2023-05-10T06:46:12.090Z,572.00
2023-05-10T06:47:12.085Z,575.00
2023-05-10T06:48:12.216Z,573.00
2023-05-10T06:49:12.182Z,592.00
2023-05-10T06:50:12.252Z,580.00
2023-05-10T06:51:12.291Z,575.00
2023-05-10T06:52:12.326Z,570.00
2023-05-10T06:53:12.360Z,579.00
2023-05-10T06:54:12.399Z,580.00
2023-05-10T06:55:12.463Z,594.00
2023-05-10T06:56:12.503Z,585.00
2023-05-10T06:57:23.343Z,598.00
2023-05-10T06:58:13.553Z,599.00
2023-05-10T06:59:12.538Z,599.00
2023-05-10T07:00:12.559Z,592.00
2023-05-10T07:01:12.575Z,600.00
2023-05-10T07:02:12.554Z,605.00
2023-05-10T07:03:12.541Z,595.00
2023-05-10T07:04:12.519Z,590.00
2023-05-10T07:05:12.484Z,593.00
2023-05-10T07:06:21.737Z,598.00
2023-05-10T07:07:13.482Z,598.00
2023-05-10T07:08:12.474Z,598.00
2023-05-10T07:09:12.508Z,599.00
2023-05-10T07:10:12.502Z,588.00
2023-05-10T07:11:12.502Z,583.00
2023-05-10T07:12:14.685Z,578.00
2023-05-10T07:13:12.480Z,567.00
2023-05-10T07:14:12.413Z,561.00
2023-05-10T07:15:12.452Z,554.00
2023-05-10T07:16:12.431Z,553.00
2023-05-10T07:17:12.447Z,551.00
2023-05-10T07:18:12.457Z,539.00
2023-05-10T07:19:12.383Z,536.00
2023-05-10T07:20:12.358Z,546.00
2023-05-10T07:21:12.422Z,547.00
2023-05-10T07:22:12.382Z,537.00
2023-05-10T07:23:12.426Z,543.00
2023-05-10T07:24:12.353Z,542.00
2023-05-10T07:25:12.374Z,530.00
2023-05-10T07:26:12.359Z,528.00
2023-05-10T07:27:12.375Z,532.00
2023-05-10T07:28:12.374Z,521.00
2023-05-10T07:29:12.344Z,517.00
2023-05-10T07:30:12.311Z,513.00
2023-05-10T07:31:12.328Z,508.00
2023-05-10T07:32:12.347Z,508.00
2023-05-10T07:33:12.338Z,505.00
2023-05-10T07:34:12.330Z,516.00
2023-05-10T07:35:12.276Z,518.00
2023-05-10T07:36:12.280Z,522.00
2023-05-10T07:37:12.237Z,528.00
2023-05-10T07:38:12.254Z,529.00
2023-05-10T07:39:16.288Z,506.00
2023-05-10T07:40:13.803Z,507.00
2023-05-10T07:41:12.209Z,507.00
2023-05-10T07:42:12.216Z,514.00
2023-05-10T07:43:12.210Z,519.00
2023-05-10T07:44:12.199Z,536.00
2023-05-10T07:45:12.216Z,531.00
2023-05-10T07:46:12.262Z,527.00
2023-05-10T07:47:12.225Z,534.00
2023-05-10T07:48:12.195Z,536.00
2023-05-10T07:49:12.160Z,533.00
2023-05-10T07:50:12.180Z,557.00
2023-05-10T07:51:12.185Z,569.00
2023-05-10T07:52:12.140Z,567.00
2023-05-10T07:53:12.155Z,555.00
2023-05-10T07:54:12.208Z,545.00
2023-05-10T07:55:12.250Z,545.00
2023-05-10T07:56:12.269Z,548.00
2023-05-10T07:57:12.298Z,549.00
2023-05-10T07:58:12.341Z,543.00
2023-05-10T07:59:12.904Z,545.00
2023-05-10T08:00:12.419Z,544.00
2023-05-10T08:01:12.442Z,546.00
2023-05-10T08:02:12.507Z,551.00
2023-05-10T08:03:12.630Z,565.00
2023-05-10T08:04:12.643Z,554.00
2023-05-10T08:05:12.641Z,560.00
2023-05-10T08:06:12.599Z,569.00
2023-05-10T08:07:12.692Z,573.00
2023-05-10T08:08:12.667Z,581.00
2023-05-10T08:09:12.684Z,579.00
2023-05-10T08:10:12.703Z,597.00
2023-05-10T08:11:12.758Z,604.00
2023-05-10T08:12:12.768Z,597.00
2023-05-10T08:13:12.799Z,592.00
2023-05-10T08:14:12.811Z,593.00
2023-05-10T08:15:12.841Z,587.00
2023-05-10T08:16:12.905Z,598.00
2023-05-10T08:17:12.962Z,588.00
2023-05-10T08:18:13.037Z,589.00
2023-05-10T08:19:13.020Z,584.00
2023-05-10T08:20:13.008Z,578.00
2023-05-10T08:21:13.036Z,581.00
2023-05-10T08:22:13.094Z,584.00
2023-05-10T08:23:13.080Z,584.00
2023-05-10T08:24:13.091Z,577.00
2023-05-10T08:25:13.104Z,574.00
2023-05-10T08:26:13.137Z,569.00
2023-05-10T08:27:13.230Z,579.00
2023-05-10T08:28:13.208Z,589.00
2023-05-10T08:29:13.239Z,593.00
2023-05-10T08:30:13.256Z,594.00
2023-05-10T08:31:13.286Z,600.00
2023-05-10T08:32:13.317Z,604.00
2023-05-10T08:33:13.346Z,617.00
2023-05-10T08:34:13.349Z,629.00
2023-05-10T08:35:13.380Z,631.00
2023-05-10T08:36:13.365Z,637.00
2023-05-10T08:37:13.400Z,628.00
2023-05-10T08:38:13.392Z,625.00
2023-05-10T08:39:22.981Z,624.00
2023-05-10T08:40:14.398Z,624.00
2023-05-10T08:41:13.376Z,626.00
2023-05-10T08:42:13.368Z,629.00
2023-05-10T08:43:13.383Z,639.00
2023-05-10T08:44:13.426Z,651.00
2023-05-10T08:45:13.415Z,654.00
2023-05-10T08:46:13.357Z,636.00
2023-05-10T08:47:13.414Z,635.00
2023-05-10T08:48:13.322Z,617.00
2023-05-10T08:49:13.320Z,595.00
2023-05-10T08:50:13.322Z,553.00
2023-05-10T08:51:13.306Z,531.00
2023-05-10T08:52:13.330Z,500.00
2023-05-10T08:53:13.289Z,500.00
2023-05-10T08:54:13.331Z,500.00
2023-05-10T08:55:13.331Z,521.00
2023-05-10T08:56:13.299Z,525.00
2023-05-10T08:57:13.309Z,515.00
2023-05-10T08:58:13.263Z,500.00
2023-05-10T08:59:13.260Z,528.00
2023-05-10T09:00:13.246Z,528.00
2023-05-10T09:01:13.297Z,486.00
2023-05-10T09:02:13.357Z,500.00
2023-05-10T09:03:13.416Z,501.00
2023-05-10T09:04:13.563Z,500.00
2023-05-10T09:05:13.504Z,503.00
2023-05-10T09:06:13.519Z,502.00
2023-05-10T09:07:13.553Z,538.00
2023-05-10T09:08:13.532Z,574.00
2023-05-10T09:09:13.555Z,577.00
2023-05-10T09:10:13.610Z,605.00
2023-05-10T09:11:13.669Z,611.00
2023-05-10T09:12:13.698Z,581.00
2023-05-10T09:13:13.797Z,547.00
2023-05-10T09:14:13.804Z,560.00
2023-05-10T09:15:13.798Z,590.00
2023-05-10T09:16:21.620Z,586.00
2023-05-10T09:17:14.976Z,586.00
2023-05-10T09:18:13.955Z,530.00
2023-05-10T09:19:13.888Z,508.00
2023-05-10T09:20:13.791Z,534.00
2023-05-10T09:21:13.827Z,573.00
2023-05-10T09:22:13.778Z,571.00
2023-05-10T09:23:13.757Z,548.00
2023-05-10T09:24:13.774Z,524.00
2023-05-10T09:25:13.754Z,517.00
2023-05-10T09:26:13.762Z,502.00
2023-05-10T09:27:13.764Z,487.00
2023-05-10T09:28:13.759Z,492.00
2023-05-10T09:29:15.356Z,510.00
2023-05-10T09:30:13.707Z,527.00
2023-05-10T09:31:13.764Z,557.00
2023-05-10T09:32:14.014Z,603.00
2023-05-10T09:33:13.720Z,639.00
2023-05-10T09:34:13.701Z,654.00
2023-05-10T09:35:13.706Z,669.00
2023-05-10T09:36:13.690Z,720.00
2023-05-10T09:37:13.669Z,786.00
2023-05-10T09:38:13.642Z,783.00
2023-05-10T09:39:13.672Z,818.00
2023-05-10T09:40:13.639Z,816.00
2023-05-10T09:41:13.654Z,917.00
2023-05-10T09:42:13.636Z,900.00
2023-05-10T09:43:13.631Z,922.00
2023-05-10T09:44:13.584Z,957.00
2023-05-10T09:45:13.642Z,1005.00
2023-05-10T09:46:13.681Z,1001.00
2023-05-10T09:47:13.601Z,986.00
2023-05-10T09:48:13.634Z,1032.00
2023-05-10T09:49:13.585Z,1055.00
2023-05-10T09:50:13.580Z,1084.00
2023-05-10T09:51:13.570Z,1082.00
2023-05-10T09:52:13.568Z,1090.00
2023-05-10T09:53:13.536Z,1106.00
2023-05-10T09:54:13.542Z,1129.00
2023-05-10T09:55:13.552Z,1148.00
2023-05-10T09:56:13.533Z,1131.00
2023-05-10T09:57:13.519Z,1162.00
2023-05-10T09:58:13.526Z,1191.00
2023-05-10T09:59:13.525Z,1217.00
2023-05-10T10:00:13.521Z,1206.00
2023-05-10T10:01:13.519Z,1228.00
2023-05-10T10:02:13.482Z,1176.00
2023-05-10T10:03:13.492Z,1203.00
2023-05-10T10:04:13.527Z,1210.00
2023-05-10T10:05:13.552Z,1246.00
2023-05-10T10:06:26.423Z,1357.00
2023-05-10T10:07:14.446Z,1305.00
2023-05-10T10:08:13.472Z,1258.00
2023-05-10T10:09:13.457Z,1289.00
2023-05-10T10:10:13.470Z,1355.00
2023-05-10T10:11:13.456Z,1375.00
2023-05-10T10:12:13.396Z,1398.00
2023-05-10T10:13:13.441Z,1401.00
2023-05-10T10:14:13.395Z,1411.00
2023-05-10T10:15:15.909Z,1425.00
2023-05-10T10:16:13.439Z,1448.00
2023-05-10T10:17:13.399Z,1455.00
2023-05-10T10:18:13.358Z,1458.00
2023-05-10T10:19:13.381Z,1477.00
2023-05-10T10:20:13.366Z,1495.00
2023-05-10T10:21:13.365Z,1509.00
2023-05-10T10:22:13.381Z,1517.00
2023-05-10T10:23:14.548Z,1521.00
2023-05-10T10:24:13.334Z,1523.00
2023-05-10T10:25:13.327Z,1526.00
2023-05-10T10:26:13.308Z,1526.00
2023-05-10T10:27:13.325Z,1539.00
2023-05-10T10:28:13.290Z,1555.00
2023-05-10T10:29:13.313Z,1533.00
2023-05-10T10:30:13.300Z,1531.00
2023-05-10T10:31:13.357Z,1489.00
2023-05-10T10:32:13.275Z,1443.00
2023-05-10T10:33:24.320Z,1440.00
2023-05-10T10:34:14.280Z,1442.00
2023-05-10T10:35:13.236Z,1444.00
2023-05-10T10:36:13.245Z,1458.00
2023-05-10T10:37:13.282Z,1470.00
2023-05-10T10:38:13.254Z,1484.00
2023-05-10T10:39:13.249Z,1466.00
2023-05-10T10:40:13.211Z,1440.00
2023-05-10T10:41:13.224Z,1428.00
2023-05-10T10:42:13.209Z,1406.00
2023-05-10T10:43:13.206Z,1405.00
2023-05-10T10:44:13.188Z,1371.00
2023-05-10T10:45:13.198Z,1353.00
2023-05-10T10:46:13.243Z,1343.00
2023-05-10T10:47:13.330Z,1325.00
2023-05-10T10:48:13.156Z,1309.00
2023-05-10T10:49:13.156Z,1344.00
2023-05-10T10:50:13.144Z,1375.00
2023-05-10T10:51:13.167Z,1390.00
2023-05-10T10:52:13.135Z,1349.00
2023-05-10T10:53:13.268Z,1254.00
2023-05-10T10:54:13.171Z,1244.00
2023-05-10T10:55:13.139Z,1138.00
2023-05-10T10:56:13.097Z,1187.00
2023-05-10T10:57:13.097Z,1197.00
2023-05-10T10:58:13.094Z,1182.00
2023-05-10T10:59:13.120Z,1205.00
2023-05-10T11:00:13.131Z,1211.00
2023-05-10T11:01:13.193Z,1217.00
2023-05-10T11:02:13.224Z,1261.00
2023-05-10T11:03:13.302Z,1331.00
2023-05-10T11:04:13.334Z,1357.00
2023-05-10T11:05:13.296Z,1384.00
2023-05-10T11:06:13.316Z,1429.00
2023-05-10T11:07:13.349Z,1480.00
2023-05-10T11:08:13.376Z,1498.00
2023-05-10T11:09:13.443Z,1508.00
2023-05-10T11:10:13.443Z,1541.00
2023-05-10T11:11:13.460Z,1578.00
2023-05-10T11:12:13.503Z,1569.00
2023-05-10T11:13:13.471Z,1614.00
2023-05-10T11:14:13.516Z,1615.00
2023-05-10T11:15:13.507Z,1626.00
2023-05-10T11:16:13.568Z,1641.00
2023-05-10T11:17:13.679Z,1652.00
2023-05-10T11:18:13.534Z,1665.00
2023-05-10T11:19:13.587Z,1683.00
2023-05-10T11:20:13.666Z,1680.00
2023-05-10T11:21:13.621Z,1683.00
2023-05-10T11:22:13.561Z,1691.00
2023-05-10T11:23:13.609Z,1691.00
2023-05-10T11:24:13.581Z,1671.00
2023-05-10T11:25:13.616Z,1652.00
2023-05-10T11:26:13.665Z,1669.00
2023-05-10T11:27:13.654Z,1668.00
2023-05-10T11:28:13.653Z,1660.00
2023-05-10T11:29:13.670Z,1595.00
2023-05-10T11:30:13.924Z,1570.00
2023-05-10T11:31:13.751Z,1584.00
2023-05-10T11:32:13.694Z,1572.00
2023-05-10T11:33:13.751Z,1589.00
2023-05-10T11:34:13.814Z,1587.00
2023-05-10T11:35:13.754Z,1596.00
2023-05-10T11:36:13.778Z,1616.00
2023-05-10T11:37:13.805Z,1625.00
2023-05-10T11:38:13.846Z,1637.00
2023-05-10T11:39:13.826Z,1657.00
2023-05-10T11:40:13.876Z,1672.00
2023-05-10T11:41:13.837Z,1685.00
2023-05-10T11:42:13.810Z,1663.00
2023-05-10T11:43:13.784Z,1695.00
2023-05-10T11:44:13.828Z,1689.00
2023-05-10T11:45:13.805Z,1690.00
2023-05-10T11:46:13.840Z,1696.00
2023-05-10T11:47:13.861Z,1701.00
2023-05-10T11:48:13.910Z,1742.00
2023-05-10T11:49:13.875Z,1758.00
2023-05-10T11:50:14.037Z,1747.00
2023-05-10T11:51:13.958Z,1751.00
2023-05-10T11:52:14.010Z,1760.00
2023-05-10T11:53:14.105Z,1768.00
2023-05-10T11:54:14.163Z,1781.00
2023-05-10T11:55:14.163Z,1774.00
2023-05-10T11:56:14.237Z,1788.00
2023-05-10T11:57:14.334Z,1794.00
2023-05-10T11:58:14.366Z,1800.00
2023-05-10T11:59:14.435Z,1804.00
2023-05-10T12:00:14.668Z,1796.00
2023-05-10T12:01:14.525Z,1815.00
2023-05-10T12:02:14.664Z,1817.00
2023-05-10T12:03:14.763Z,1833.00
2023-05-10T12:04:14.937Z,1820.00
2023-05-10T12:05:14.743Z,1829.00
2023-05-10T12:06:14.800Z,1838.00
2023-05-10T12:07:14.829Z,1842.00
2023-05-10T12:08:14.908Z,1841.00
2023-05-10T12:09:14.970Z,1847.00
2023-05-10T12:10:15.165Z,1835.00
2023-05-10T12:11:15.084Z,1836.00
2023-05-10T12:12:15.104Z,1815.00
2023-05-10T12:13:15.212Z,1787.00
2023-05-10T12:14:15.249Z,1758.00
2023-05-10T12:15:15.279Z,1716.00
2023-05-10T12:16:15.441Z,1730.00
2023-05-10T12:17:15.385Z,1726.00
2023-05-10T12:18:15.450Z,1702.00
2023-05-10T12:19:15.525Z,1704.00
2023-05-10T12:20:15.780Z,1657.00
2023-05-10T12:21:15.619Z,1534.00
2023-05-10T12:22:15.624Z,1419.00
2023-05-10T12:23:15.658Z,1129.00
2023-05-10T12:24:15.749Z,1047.00
2023-05-10T12:25:15.708Z,955.00
2023-05-10T12:26:15.789Z,879.00
2023-05-10T12:27:15.734Z,807.00
2023-05-10T12:28:15.866Z,858.00
2023-05-10T12:29:15.820Z,911.00
2023-05-10T12:30:15.932Z,997.00
2023-05-10T12:31:15.905Z,996.00
2023-05-10T12:32:15.948Z,989.00
2023-05-10T12:33:15.988Z,903.00
2023-05-10T12:34:15.870Z,896.00
2023-05-10T12:35:15.904Z,892.00
2023-05-10T12:36:15.932Z,833.00
2023-05-10T12:37:15.983Z,766.00
2023-05-10T12:38:16.008Z,854.00
2023-05-10T12:39:16.073Z,927.00
2023-05-10T12:40:16.329Z,964.00
2023-05-10T12:41:16.162Z,744.00
2023-05-10T12:42:16.138Z,781.00
2023-05-10T12:43:16.190Z,854.00
2023-05-10T12:44:16.270Z,793.00
2023-05-10T12:45:16.255Z,840.00
2023-05-10T12:46:16.452Z,797.00
2023-05-10T12:47:16.370Z,752.00
2023-05-10T12:48:16.427Z,753.00
2023-05-10T12:49:16.492Z,694.00
2023-05-10T12:50:16.727Z,789.00
2023-05-10T12:51:16.563Z,840.00
2023-05-10T12:52:16.484Z,790.00
2023-05-10T12:53:16.513Z,814.00
2023-05-10T12:54:16.512Z,784.00
2023-05-10T12:55:16.567Z,808.00
2023-05-10T12:56:16.562Z,869.00
2023-05-10T12:57:16.584Z,890.00
2023-05-10T12:58:31.383Z,872.00
2023-05-10T12:59:17.574Z,873.00
2023-05-10T13:00:16.694Z,843.00
2023-05-10T13:01:16.573Z,822.00
2023-05-10T13:02:16.562Z,814.00
2023-05-10T13:03:16.527Z,870.00
2023-05-10T13:04:16.669Z,935.00
2023-05-10T13:05:16.536Z,1066.00
2023-05-10T13:06:16.537Z,1060.00
2023-05-10T13:07:16.509Z,1115.00
2023-05-10T13:08:16.489Z,1108.00
2023-05-10T13:09:16.494Z,1124.00
2023-05-10T13:10:16.586Z,1106.00
2023-05-10T13:11:16.508Z,1128.00
2023-05-10T13:12:16.474Z,1159.00
2023-05-10T13:13:16.486Z,1153.00
2023-05-10T13:14:16.599Z,1343.00
2023-05-10T13:15:16.537Z,1375.00
2023-05-10T13:16:16.611Z,1231.00
2023-05-10T13:17:16.678Z,1247.00
2023-05-10T13:18:16.708Z,1225.00
2023-05-10T13:19:16.747Z,1268.00
2023-05-10T13:20:17.091Z,1301.00
2023-05-10T13:21:16.691Z,1358.00
2023-05-10T13:22:22.855Z,1336.00
2023-05-10T13:23:17.670Z,1337.00
2023-05-10T13:24:16.691Z,1333.00
2023-05-10T13:25:16.659Z,1326.00
2023-05-10T13:26:16.660Z,1299.00
2023-05-10T13:27:16.655Z,1322.00
2023-05-10T13:28:16.620Z,1295.00
2023-05-10T13:29:16.641Z,1273.00
2023-05-10T13:30:16.792Z,1233.00
2023-05-10T13:31:16.695Z,1180.00
2023-05-10T13:32:16.602Z,1196.00
2023-05-10T13:33:16.575Z,1199.00
2023-05-10T13:34:16.691Z,1195.00
2023-05-10T13:35:16.590Z,1152.00
2023-05-10T13:36:16.609Z,1161.00
2023-05-10T13:37:16.595Z,1144.00
2023-05-10T13:38:16.604Z,1112.00
2023-05-10T13:39:16.600Z,1084.00
2023-05-10T13:40:16.866Z,1111.00
2023-05-10T13:41:16.625Z,1094.00
2023-05-10T13:42:16.587Z,1086.00
2023-05-10T13:43:16.624Z,1080.00
2023-05-10T13:44:16.646Z,1084.00
2023-05-10T13:45:16.745Z,1069.00
2023-05-10T13:46:16.716Z,1086.00
2023-05-10T13:47:16.632Z,1067.00
2023-05-10T13:48:16.643Z,1053.00
2023-05-10T13:49:16.639Z,1039.00
2023-05-10T13:50:16.611Z,1037.00
2023-05-10T13:51:16.615Z,1028.00
2023-05-10T13:52:16.645Z,1029.00
2023-05-10T13:53:16.605Z,1020.00
2023-05-10T13:54:16.615Z,1048.00
2023-05-10T13:55:16.742Z,1017.00
2023-05-10T13:56:16.626Z,998.00
2023-05-10T13:57:16.587Z,1016.00
2023-05-10T13:58:16.628Z,1052.00
2023-05-10T13:59:16.578Z,1044.00
2023-05-10T14:00:16.593Z,1068.00
2023-05-10T14:01:16.618Z,1039.00
2023-05-10T14:02:16.601Z,1061.00
2023-05-10T14:03:16.615Z,1068.00
2023-05-10T14:04:16.627Z,1093.00
2023-05-10T14:05:17.182Z,1097.00
2023-05-10T14:06:16.663Z,1074.00
2023-05-10T14:07:16.672Z,1098.00
2023-05-10T14:08:16.683Z,1097.00
2023-05-10T14:09:16.852Z,1133.00
2023-05-10T14:10:16.782Z,1115.00
2023-05-10T14:11:16.807Z,1128.00
2023-05-10T14:12:16.856Z,1136.00
2023-05-10T14:13:16.913Z,1145.00
2023-05-10T14:14:16.979Z,1159.00
2023-05-10T14:15:17.555Z,1167.00
2023-05-10T14:16:17.118Z,1147.00
2023-05-10T14:17:17.183Z,1154.00
2023-05-10T14:18:17.264Z,1164.00
2023-05-10T14:19:17.261Z,1182.00
2023-05-10T14:20:17.342Z,1215.00
2023-05-10T14:21:17.383Z,1197.00
2023-05-10T14:22:17.430Z,1203.00
2023-05-10T14:23:17.502Z,1201.00
2023-05-10T14:24:17.590Z,1224.00
2023-05-10T14:25:17.810Z,1221.00
2023-05-10T14:26:17.680Z,1227.00
2023-05-10T14:27:17.730Z,1250.00
2023-05-10T14:28:17.865Z,1252.00
2023-05-10T14:29:18.808Z,1252.00
2023-05-10T14:30:17.910Z,1259.00
2023-05-10T14:31:18.097Z,1269.00
2023-05-10T14:32:18.150Z,1281.00
2023-05-10T14:33:18.062Z,1283.00
2023-05-10T14:34:18.132Z,1275.00
2023-05-10T14:35:19.626Z,1285.00
2023-05-10T14:36:18.219Z,1278.00
2023-05-10T14:37:18.290Z,1289.00
2023-05-10T14:38:18.337Z,1282.00
2023-05-10T14:39:18.386Z,1279.00
2023-05-10T14:40:18.436Z,1278.00
2023-05-10T14:41:18.497Z,1246.00
2023-05-10T14:42:18.582Z,1273.00
2023-05-10T14:43:18.625Z,1253.00
2023-05-10T14:44:18.634Z,1244.00
2023-05-10T14:45:18.823Z,1259.00
2023-05-10T14:46:18.760Z,1244.00
2023-05-10T14:47:18.772Z,1280.00
2023-05-10T14:48:18.794Z,1310.00
2023-05-10T14:49:18.938Z,1252.00
2023-05-10T14:50:32.344Z,1258.00
2023-05-10T14:51:19.923Z,1261.00
2023-05-10T14:53:37.951Z,500.00
2023-05-10T14:54:37.956Z,500.00
2023-05-10T14:55:37.964Z,500.00
2023-05-10T14:56:37.926Z,500.00
2023-05-10T14:57:37.932Z,500.00
2023-05-10T14:58:37.908Z,500.00
2023-05-10T14:59:37.941Z,500.00
2023-05-10T15:00:37.930Z,523.00
2023-05-10T15:01:37.979Z,509.00
2023-05-10T15:02:38.016Z,518.00
2023-05-10T15:03:38.163Z,502.00
2023-05-10T15:04:37.963Z,510.00
2023-05-10T15:05:37.877Z,507.00
2023-05-10T15:06:37.926Z,524.00
2023-05-10T15:07:37.862Z,515.00
2023-05-10T15:08:37.830Z,518.00
2023-05-10T15:09:37.852Z,509.00
2023-05-10T15:10:37.821Z,511.00
2023-05-10T15:11:37.832Z,512.00
2023-05-10T15:12:37.843Z,507.00
2023-05-10T15:13:37.854Z,509.00
2023-05-10T15:14:37.786Z,510.00
2023-05-10T15:15:37.805Z,514.00
2023-05-10T15:16:37.896Z,513.00
2023-05-10T15:17:37.889Z,514.00
2023-05-10T15:18:37.815Z,512.00
2023-05-10T15:19:37.771Z,516.00
2023-05-10T15:20:37.785Z,539.00
2023-05-10T15:21:37.760Z,400.00
2023-05-10T15:22:37.746Z,400.00
2023-05-10T15:23:37.750Z,400.00
2023-05-10T15:24:37.731Z,400.00
2023-05-10T15:25:37.732Z,400.00
2023-05-10T15:26:37.775Z,437.00
2023-05-10T15:27:37.806Z,551.00
2023-05-10T15:28:37.863Z,616.00
2023-05-10T15:29:37.936Z,650.00
2023-05-10T15:30:37.982Z,644.00
2023-05-10T15:31:38.037Z,640.00
2023-05-10T15:32:38.106Z,667.00
2023-05-10T15:33:40.775Z,665.00
2023-05-10T15:34:38.073Z,786.00
2023-05-10T15:35:38.069Z,893.00
2023-05-10T15:36:38.084Z,916.00
2023-05-10T15:37:38.134Z,937.00
2023-05-10T15:38:38.087Z,1055.00
2023-05-10T15:39:38.040Z,1095.00
2023-05-10T15:40:38.013Z,1130.00
2023-05-10T15:41:38.033Z,1204.00
2023-05-10T15:42:38.031Z,1152.00
2023-05-10T15:43:38.019Z,1158.00
2023-05-10T15:44:38.003Z,1291.00
2023-05-10T15:45:37.998Z,1320.00
2023-05-10T15:46:38.076Z,1437.00
2023-05-10T15:47:38.010Z,1404.00
2023-05-10T15:48:37.998Z,1423.00
2023-05-10T15:49:38.019Z,1396.00
2023-05-10T15:50:37.964Z,1405.00
2023-05-10T15:51:37.973Z,1402.00
2023-05-10T15:52:37.926Z,1421.00
2023-05-10T15:53:37.995Z,1419.00
2023-05-10T15:54:37.932Z,1435.00
2023-05-10T15:55:37.936Z,1437.00
2023-05-10T15:56:37.934Z,1446.00
2023-05-10T15:57:37.894Z,1456.00
2023-05-10T15:58:37.897Z,1441.00
2023-05-10T15:59:37.901Z,1463.00
2023-05-10T16:00:37.939Z,1461.00
2023-05-10T16:01:37.883Z,1451.00
2023-05-10T16:02:37.945Z,1454.00
2023-05-10T16:03:37.948Z,1450.00
2023-05-10T16:04:37.877Z,1457.00
2023-05-10T16:05:37.865Z,1451.00
2023-05-10T16:06:37.882Z,1460.00
2023-05-10T16:07:37.877Z,1448.00
2023-05-10T16:08:37.845Z,1452.00
2023-05-10T16:09:37.844Z,1454.00
2023-05-10T16:10:37.815Z,1450.00
2023-05-10T16:11:37.854Z,1432.00
2023-05-10T16:12:37.817Z,1444.00
2023-05-10T16:13:37.817Z,1450.00
2023-05-10T16:14:37.792Z,1437.00
2023-05-10T16:15:37.784Z,1431.00
2023-05-10T16:16:37.892Z,1435.00
2023-05-10T16:17:37.902Z,1425.00
2023-05-10T16:18:37.869Z,1427.00
2023-05-10T16:19:37.761Z,1431.00
2023-05-10T16:20:37.733Z,1439.00
2023-05-10T16:21:37.726Z,1437.00
2023-05-10T16:22:37.729Z,1424.00
2023-05-10T16:23:37.777Z,1430.00
2023-05-10T16:24:37.739Z,1412.00
2023-05-10T16:25:37.718Z,1441.00
2023-05-10T16:26:37.707Z,1420.00
2023-05-10T16:27:37.723Z,1413.00
2023-05-10T16:28:37.682Z,1447.00
2023-05-10T16:29:37.691Z,1437.00
2023-05-10T16:30:37.738Z,1421.00
2023-05-10T16:31:37.692Z,1418.00
2023-05-10T16:32:37.705Z,1420.00
2023-05-10T16:33:37.644Z,1410.00
2023-05-10T16:34:37.681Z,1416.00
2023-05-10T16:35:37.659Z,1404.00
2023-05-10T16:36:37.645Z,1411.00
2023-05-10T16:37:37.633Z,1429.00
2023-05-10T16:38:37.622Z,1409.00
2023-05-10T16:39:37.615Z,1405.00
2023-05-10T16:40:37.633Z,1403.00
2023-05-10T16:41:37.622Z,1400.00
2023-05-10T16:42:37.584Z,1399.00
2023-05-10T16:43:37.570Z,1401.00
2023-05-10T16:44:37.579Z,1409.00
2023-05-10T16:45:37.557Z,1392.00
2023-05-10T16:46:37.766Z,1419.00
2023-05-10T16:47:37.575Z,1408.00
2023-05-10T16:48:37.538Z,1430.00
2023-05-10T16:49:37.579Z,1403.00
2023-05-10T16:50:37.531Z,1392.00
2023-05-10T16:51:37.522Z,1394.00
2023-05-10T16:52:37.516Z,1398.00
2023-05-10T16:53:37.493Z,1399.00
2023-05-10T16:54:37.473Z,1393.00
2023-05-10T16:55:37.489Z,1381.00
2023-05-10T16:56:37.503Z,1388.00
2023-05-10T16:57:37.483Z,1394.00
2023-05-10T16:58:37.501Z,1389.00
2023-05-10T16:59:37.457Z,1380.00
2023-05-10T17:00:37.454Z,1378.00
